createdAt,value
2022-11-28T00:01:41.412Z,9.10
2022-11-28T00:04:10.420Z,9.10
2022-11-28T00:06:40.141Z,9.10
2022-11-28T00:09:09.815Z,9.10
2022-11-28T00:11:40.061Z,9.10
2022-11-28T00:14:08.803Z,9.10
2022-11-28T00:16:37.499Z,9.10
2022-11-28T00:19:07.937Z,9.10
2022-11-28T00:21:36.378Z,9.00
2022-11-28T00:24:05.168Z,9.00
2022-11-28T00:26:35.029Z,9.00
2022-11-28T00:29:05.021Z,9.00
2022-11-28T00:31:35.977Z,9.00
2022-11-28T00:34:06.121Z,9.00
2022-11-28T00:36:34.331Z,9.00
2022-11-28T00:39:02.534Z,8.90
2022-11-28T00:41:33.924Z,8.90
2022-11-28T00:44:02.365Z,8.90
2022-11-28T00:46:30.986Z,8.80
2022-11-28T00:48:59.879Z,8.70
2022-11-28T00:51:31.557Z,8.80
2022-11-28T00:54:01.347Z,8.80
2022-11-28T00:56:32.043Z,8.80
2022-11-28T00:59:00.803Z,8.70
2022-11-28T01:01:32.076Z,8.80
2022-11-28T01:04:02.232Z,8.90
2022-11-28T01:06:34.074Z,8.90
2022-11-28T01:09:04.767Z,8.90
2022-11-28T01:11:33.280Z,8.90
2022-11-28T01:14:02.784Z,9.00
2022-11-28T01:16:31.471Z,8.90
2022-11-28T01:18:59.940Z,8.90
2022-11-28T01:21:28.645Z,8.90
2022-11-28T01:23:58.510Z,8.90
2022-11-28T01:26:29.199Z,8.90
2022-11-28T01:28:57.639Z,8.90
2022-11-28T01:31:28.439Z,9.00
2022-11-28T01:33:57.565Z,8.90
2022-11-28T01:36:26.147Z,8.90
2022-11-28T01:38:54.580Z,8.90
2022-11-28T01:41:26.508Z,8.90
2022-11-28T01:44:03.970Z,8.90
2022-11-28T01:46:32.650Z,8.90
2022-11-28T01:49:06.063Z,9.00
2022-11-28T01:51:34.875Z,9.00
2022-11-28T01:54:03.853Z,9.10
2022-11-28T01:56:41.648Z,9.10
2022-11-28T01:59:12.815Z,9.00
2022-11-28T02:01:41.408Z,9.10
2022-11-28T02:04:11.430Z,9.10
2022-11-28T02:06:39.597Z,9.10
2022-11-28T02:09:11.029Z,9.10
2022-11-28T02:12:02.348Z,9.10
2022-11-28T02:14:56.701Z,9.20
2022-11-28T02:17:32.555Z,9.10
2022-11-28T02:20:28.804Z,9.00
2022-11-28T02:23:07.896Z,9.10
2022-11-28T02:25:59.277Z,9.10
2022-11-28T02:29:03.835Z,9.10
2022-11-28T02:31:39.674Z,9.20
2022-11-28T02:34:14.931Z,9.20
2022-11-28T02:36:48.618Z,9.30
2022-11-28T02:39:21.757Z,9.20
2022-11-28T02:41:57.828Z,9.20
2022-11-28T02:44:32.442Z,9.20
2022-11-28T02:47:06.869Z,9.10
2022-11-28T02:49:43.518Z,9.10
2022-11-28T02:52:16.536Z,9.10
2022-11-28T02:54:46.270Z,9.20
2022-11-28T02:57:14.412Z,9.20
2022-11-28T02:59:50.531Z,9.10
2022-11-28T03:02:24.176Z,9.30
2022-11-28T03:04:57.635Z,9.30
2022-11-28T03:07:40.073Z,9.30
2022-11-28T03:10:20.130Z,9.40
2022-11-28T03:12:57.131Z,9.40
2022-11-28T03:15:33.981Z,9.40
2022-11-28T03:18:11.541Z,9.40
2022-11-28T03:20:48.353Z,9.40
2022-11-28T03:23:18.272Z,9.30
2022-11-28T03:25:59.386Z,9.40
2022-11-28T03:28:31.720Z,9.40
2022-11-28T03:31:03.308Z,9.40
2022-11-28T03:33:34.735Z,9.40
2022-11-28T03:36:07.960Z,9.40
2022-11-28T03:38:39.118Z,9.50
2022-11-28T03:41:12.950Z,9.50
2022-11-28T03:43:45.585Z,9.50
2022-11-28T03:46:17.768Z,9.40
2022-11-28T03:48:48.070Z,9.40
2022-11-28T03:51:19.936Z,9.50
2022-11-28T03:53:54.348Z,9.40
2022-11-28T03:56:27.839Z,9.50
2022-11-28T03:59:01.385Z,9.50
2022-11-28T04:01:34.021Z,9.50
2022-11-28T04:04:15.453Z,9.50
2022-11-28T04:06:59.144Z,9.50
2022-11-28T04:09:41.026Z,9.50
2022-11-28T04:12:16.432Z,9.70
2022-11-28T04:14:49.740Z,9.60
2022-11-28T04:17:21.498Z,9.60
2022-11-28T04:19:53.109Z,9.70
2022-11-28T04:22:28.392Z,9.70
2022-11-28T04:24:59.724Z,9.60
2022-11-28T04:27:32.945Z,9.60
2022-11-28T04:30:04.461Z,9.60
2022-11-28T04:32:37.710Z,9.60
2022-11-28T04:35:09.010Z,9.60
2022-11-28T04:37:40.824Z,9.60
2022-11-28T04:40:11.194Z,9.60
2022-11-28T04:42:47.591Z,9.60
2022-11-28T04:45:24.279Z,9.70
2022-11-28T04:47:53.305Z,9.80
2022-11-28T04:50:23.242Z,9.80
2022-11-28T04:52:57.343Z,9.80
2022-11-28T04:55:31.404Z,9.80
2022-11-28T04:58:09.924Z,9.80
2022-11-28T05:00:39.523Z,9.80
2022-11-28T05:03:08.997Z,9.80
2022-11-28T05:05:45.411Z,9.70
2022-11-28T05:08:15.630Z,9.80
2022-11-28T05:10:43.809Z,9.80
2022-11-28T05:13:12.299Z,9.70
2022-11-28T05:15:40.625Z,9.80
2022-11-28T05:18:08.783Z,9.80
2022-11-28T05:20:38.298Z,9.80
2022-11-28T05:23:06.940Z,9.80
2022-11-28T05:25:38.441Z,9.80
2022-11-28T05:28:06.985Z,9.80
2022-11-28T05:30:35.190Z,9.80
2022-11-28T05:33:03.978Z,9.80
2022-11-28T05:35:32.195Z,9.80
2022-11-28T05:38:00.414Z,9.80
2022-11-28T05:40:28.688Z,9.80
2022-11-28T05:42:58.567Z,9.70
2022-11-28T05:45:26.675Z,9.90
2022-11-28T05:47:54.797Z,10.00
2022-11-28T05:50:23.222Z,10.00
2022-11-28T05:52:51.309Z,9.90
2022-11-28T05:55:19.474Z,9.80
2022-11-28T05:57:48.292Z,9.70
2022-11-28T06:00:18.799Z,9.70
2022-11-28T06:02:46.963Z,9.70
2022-11-28T06:05:40.393Z,9.70
2022-11-28T06:08:03.921Z,9.70
2022-11-28T06:10:32.819Z,9.80
2022-11-28T06:13:01.027Z,9.80
2022-11-28T06:15:34.938Z,9.80
2022-11-28T06:18:06.182Z,9.90
2022-11-28T06:20:36.485Z,9.90
2022-11-28T06:23:04.999Z,10.00
2022-11-28T06:25:33.438Z,9.90
2022-11-28T06:28:01.638Z,9.90
2022-11-28T06:30:31.093Z,9.90
2022-11-28T06:32:59.417Z,9.90
2022-11-28T06:35:27.539Z,9.90
2022-11-28T06:37:55.637Z,9.90
2022-11-28T06:40:23.806Z,9.90
2022-11-28T06:42:51.915Z,9.90
2022-11-28T06:45:20.226Z,9.90
2022-11-28T06:47:49.988Z,9.90
2022-11-28T06:50:18.241Z,9.80
2022-11-28T06:52:46.371Z,9.90
2022-11-28T06:55:14.682Z,9.80
2022-11-28T06:57:42.769Z,9.80
2022-11-28T07:00:11.911Z,9.80
2022-11-28T07:02:40.473Z,9.70
2022-11-28T07:05:10.796Z,9.70
2022-11-28T07:07:53.276Z,9.70
2022-11-28T07:10:23.206Z,9.70
2022-11-28T07:12:55.201Z,9.70
2022-11-28T07:15:23.625Z,9.80
2022-11-28T07:17:52.123Z,9.80
2022-11-28T07:20:21.894Z,9.80
2022-11-28T07:22:50.563Z,9.90
2022-11-28T07:25:18.859Z,9.90
2022-11-28T07:27:49.868Z,9.80
2022-11-28T07:30:20.143Z,9.80
2022-11-28T07:32:48.223Z,9.80
2022-11-28T07:35:16.556Z,9.80
2022-11-28T07:37:46.554Z,9.90
2022-11-28T07:40:15.235Z,9.90
2022-11-28T07:42:43.456Z,9.90
2022-11-28T07:45:12.534Z,9.80
2022-11-28T07:47:40.790Z,9.90
2022-11-28T07:50:10.026Z,9.90
2022-11-28T07:52:38.560Z,9.80
2022-11-28T07:55:09.093Z,9.90
2022-11-28T07:57:37.198Z,9.90
2022-11-28T08:00:06.306Z,10.00
2022-11-28T08:02:34.792Z,9.90
2022-11-28T08:05:04.421Z,9.90
2022-11-28T08:07:32.768Z,9.90
2022-11-28T08:10:01.040Z,9.80
2022-11-28T08:12:30.553Z,9.80
2022-11-28T08:14:58.793Z,9.90
2022-11-28T08:17:27.135Z,9.90
2022-11-28T08:19:55.227Z,9.90
2022-11-28T08:22:23.478Z,10.00
2022-11-28T08:24:51.893Z,9.90
2022-11-28T08:27:20.091Z,9.90
2022-11-28T08:29:53.208Z,9.90
2022-11-28T08:32:22.177Z,10.00
2022-11-28T08:34:50.449Z,10.00
2022-11-28T08:37:18.563Z,10.00
2022-11-28T08:39:46.906Z,10.00
2022-11-28T08:42:15.094Z,10.00
2022-11-28T08:44:43.226Z,10.00
2022-11-28T08:47:13.270Z,10.00
2022-11-28T08:49:42.300Z,10.00
2022-11-28T08:52:11.028Z,10.10
2022-11-28T08:54:39.403Z,10.20
2022-11-28T08:57:08.195Z,10.20
2022-11-28T08:59:37.176Z,10.30
2022-11-28T09:02:05.301Z,10.30
2022-11-28T09:04:35.186Z,10.40
2022-11-28T09:07:03.421Z,10.40
2022-11-28T09:09:32.885Z,10.50
2022-11-28T09:12:01.635Z,10.50
2022-11-28T09:14:29.867Z,10.40
2022-11-28T09:16:58.019Z,10.40
2022-11-28T09:19:26.631Z,10.40
2022-11-28T09:21:58.018Z,10.40
2022-11-28T09:24:26.359Z,10.50
2022-11-28T09:26:54.735Z,10.60
2022-11-28T09:29:23.031Z,10.70
2022-11-28T09:31:51.236Z,10.70
2022-11-28T09:34:19.678Z,10.70
2022-11-28T09:36:50.081Z,10.70
2022-11-28T09:39:19.633Z,10.80
2022-11-28T09:42:01.263Z,10.80
2022-11-28T09:44:37.598Z,10.90
2022-11-28T09:47:12.027Z,11.00
2022-11-28T09:49:47.621Z,11.00
2022-11-28T09:52:29.534Z,11.00
2022-11-28T09:55:11.036Z,11.20
2022-11-28T09:57:44.843Z,11.20
2022-11-28T10:00:18.739Z,11.30
2022-11-28T10:02:59.910Z,11.30
2022-11-28T10:05:36.979Z,11.40
2022-11-28T10:08:19.202Z,11.40
2022-11-28T10:10:58.868Z,11.40
2022-11-28T10:13:59.886Z,11.40
2022-11-28T10:16:32.568Z,11.50
2022-11-28T10:19:04.563Z,11.50
2022-11-28T10:21:38.087Z,11.60
2022-11-28T10:24:14.077Z,11.60
2022-11-28T10:26:47.591Z,11.50
2022-11-28T10:29:25.736Z,11.50
2022-11-28T10:31:58.343Z,11.40
2022-11-28T10:34:31.548Z,11.40
2022-11-28T10:37:06.219Z,11.50
2022-11-28T10:39:38.870Z,11.60
2022-11-28T10:42:16.706Z,11.60
2022-11-28T10:45:15.049Z,11.50
2022-11-28T10:47:54.961Z,11.50
2022-11-28T10:50:34.043Z,11.50
2022-11-28T10:53:08.221Z,11.40
2022-11-28T10:55:45.243Z,11.30
2022-11-28T10:58:22.533Z,11.30
2022-11-28T11:00:55.384Z,11.40
2022-11-28T11:03:29.260Z,11.30
2022-11-28T11:05:57.943Z,11.30
2022-11-28T11:08:28.327Z,11.30
2022-11-28T11:11:03.043Z,11.20
2022-11-28T11:13:34.503Z,11.30
2022-11-28T11:16:06.120Z,11.30
2022-11-28T11:18:36.645Z,11.30
2022-11-28T11:21:16.985Z,11.30
2022-11-28T11:23:46.181Z,11.30
2022-11-28T11:26:23.973Z,11.30
2022-11-28T11:28:53.640Z,11.30
2022-11-28T11:31:28.548Z,11.30
2022-11-28T11:34:03.676Z,11.30
2022-11-28T11:36:34.385Z,11.20
2022-11-28T11:39:20.733Z,11.30
2022-11-28T11:41:50.827Z,11.40
2022-11-28T11:44:34.421Z,11.40
2022-11-28T11:47:05.765Z,11.40
2022-11-28T11:49:36.158Z,11.40
2022-11-28T11:52:07.147Z,11.40
2022-11-28T11:54:35.374Z,11.40
2022-11-28T11:57:31.382Z,11.50
2022-11-28T11:59:57.144Z,11.50
2022-11-28T12:02:32.373Z,11.50
2022-11-28T12:05:05.812Z,11.60
2022-11-28T12:07:40.366Z,11.60
2022-11-28T12:10:14.238Z,11.80
2022-11-28T12:12:42.602Z,11.90
2022-11-28T12:15:19.105Z,12.10
2022-11-28T12:18:04.401Z,12.20
2022-11-28T12:20:41.787Z,12.20
2022-11-28T12:23:25.539Z,12.20
2022-11-28T12:26:00.955Z,12.20
2022-11-28T12:28:42.691Z,12.20
2022-11-28T12:31:22.906Z,12.20
2022-11-28T12:34:04.189Z,12.30
2022-11-28T12:36:37.912Z,12.40
2022-11-28T12:39:18.707Z,12.40
2022-11-28T12:42:17.297Z,12.40
2022-11-28T12:44:59.950Z,12.30
2022-11-28T12:47:40.782Z,12.30
2022-11-28T12:50:19.772Z,12.20
2022-11-28T12:52:57.320Z,12.10
2022-11-28T12:55:35.457Z,12.20
2022-11-28T12:58:11.780Z,12.30
2022-11-28T13:00:51.912Z,12.30
2022-11-28T13:03:36.104Z,12.10
2022-11-28T13:06:18.375Z,12.10
2022-11-28T13:09:04.458Z,12.10
2022-11-28T13:11:52.439Z,12.00
2022-11-28T13:14:28.837Z,12.00
2022-11-28T13:17:00.000Z,12.00
2022-11-28T13:19:39.729Z,11.90
2022-11-28T13:22:14.844Z,12.00
2022-11-28T13:24:52.181Z,11.90
2022-11-28T13:27:32.632Z,11.90
2022-11-28T13:30:10.517Z,11.80
2022-11-28T13:32:45.924Z,11.90
2022-11-28T13:35:18.644Z,11.80
2022-11-28T13:40:44.248Z,11.90
2022-11-28T13:43:16.089Z,12.00
2022-11-28T13:45:46.867Z,12.10
2022-11-28T13:51:43.540Z,12.10
2022-11-28T13:54:46.414Z,12.10
2022-11-28T13:57:31.268Z,12.10
2022-11-28T14:00:22.655Z,12.20
2022-11-28T14:02:54.646Z,12.20
2022-11-28T14:05:32.876Z,12.20
2022-11-28T14:08:04.479Z,12.10
2022-11-28T14:10:56.681Z,12.20
2022-11-28T14:13:45.031Z,12.30
2022-11-28T14:16:23.838Z,12.30
2022-11-28T14:19:13.833Z,12.40
2022-11-28T14:21:58.018Z,12.30
2022-11-28T14:24:44.583Z,12.30
2022-11-28T14:27:21.919Z,12.20
2022-11-28T14:29:53.279Z,12.10
2022-11-28T14:32:33.654Z,12.00
2022-11-28T14:35:02.623Z,11.90
2022-11-28T14:37:58.888Z,11.90
2022-11-28T14:41:06.971Z,11.90
2022-11-28T14:43:38.257Z,11.90
2022-11-28T14:46:40.816Z,11.90
2022-11-28T14:49:21.914Z,11.90
2022-11-28T14:52:45.178Z,11.80
2022-11-28T14:55:20.698Z,11.80
2022-11-28T14:57:58.189Z,11.80
2022-11-28T15:00:29.977Z,11.80
2022-11-28T15:03:14.024Z,11.80
2022-11-28T15:05:47.608Z,11.80
2022-11-28T15:08:49.441Z,11.80
2022-11-28T15:11:36.521Z,11.80
2022-11-28T15:14:21.925Z,11.70
2022-11-28T15:16:53.938Z,11.60
2022-11-28T15:19:28.952Z,11.60
2022-11-28T15:21:57.891Z,11.60
2022-11-28T15:24:31.254Z,11.50
2022-11-28T15:27:16.899Z,11.50
2022-11-28T15:29:55.378Z,11.50
2022-11-28T15:32:25.943Z,11.40
2022-11-28T15:34:58.032Z,11.40
2022-11-28T15:37:30.390Z,11.30
2022-11-28T15:40:00.835Z,11.30
2022-11-28T15:42:31.817Z,11.20
2022-11-28T15:45:01.781Z,11.10
2022-11-28T15:47:31.941Z,11.00
2022-11-28T15:50:03.097Z,10.90
2022-11-28T15:52:31.989Z,10.90
2022-11-28T15:55:00.212Z,10.80
2022-11-28T15:57:32.727Z,10.80
2022-11-28T16:00:05.244Z,10.80
2022-11-28T16:02:38.866Z,10.70
2022-11-28T16:05:08.851Z,10.80
2022-11-28T16:07:42.835Z,10.80
2022-11-28T16:10:25.454Z,10.90
2022-11-28T16:12:59.374Z,10.90
2022-11-28T16:15:28.364Z,10.80
2022-11-28T16:17:58.197Z,10.80
2022-11-28T16:20:29.134Z,10.90
2022-11-28T16:23:02.678Z,10.90
2022-11-28T16:25:32.824Z,10.90
2022-11-28T16:28:01.377Z,10.90
2022-11-28T16:30:37.009Z,10.90
2022-11-28T16:33:40.035Z,10.80
2022-11-28T16:36:19.475Z,10.80
2022-11-28T16:38:49.819Z,10.80
2022-11-28T16:41:19.120Z,10.80
2022-11-28T16:43:51.384Z,10.80
2022-11-28T16:46:22.861Z,10.80
2022-11-28T16:48:59.801Z,10.80
2022-11-28T16:51:36.327Z,10.80
2022-11-28T16:54:31.003Z,10.80
2022-11-28T16:57:10.487Z,10.90
2022-11-28T16:59:39.201Z,10.80
2022-11-28T17:02:15.533Z,10.70
2022-11-28T17:04:46.039Z,10.70
2022-11-28T17:07:16.750Z,10.70
2022-11-28T17:09:46.955Z,10.60
2022-11-28T17:12:21.107Z,10.70
2022-11-28T17:14:49.498Z,10.70
2022-11-28T17:17:19.037Z,10.70
2022-11-28T17:19:48.669Z,10.80
2022-11-28T17:22:19.922Z,10.70
2022-11-28T17:24:48.951Z,10.70
2022-11-28T17:27:17.350Z,10.60
2022-11-28T17:29:45.814Z,10.70
2022-11-28T17:32:15.497Z,10.80
2022-11-28T17:34:46.114Z,10.80
2022-11-28T17:37:16.791Z,10.70
2022-11-28T17:40:05.673Z,10.70
2022-11-28T17:42:34.087Z,10.70
2022-11-28T17:45:02.323Z,10.50
2022-11-28T17:47:30.510Z,10.50
2022-11-28T17:49:58.831Z,10.40
2022-11-28T17:52:30.360Z,10.40
2022-11-28T17:55:06.906Z,10.40
2022-11-28T17:57:36.000Z,10.40
2022-11-28T18:00:06.751Z,10.30
2022-11-28T18:02:37.428Z,10.30
2022-11-28T18:05:06.372Z,10.20
2022-11-28T18:07:36.010Z,10.20
2022-11-28T18:10:04.969Z,10.20
2022-11-28T18:12:33.593Z,10.10
2022-11-28T18:15:01.768Z,10.10
2022-11-28T18:17:30.007Z,10.10
2022-11-28T18:19:58.718Z,10.10
2022-11-28T18:22:27.111Z,10.00
2022-11-28T18:24:57.664Z,9.90
2022-11-28T18:27:25.816Z,9.90
2022-11-28T18:29:53.948Z,9.80
2022-11-28T18:32:22.263Z,9.80
2022-11-28T18:34:50.322Z,9.80
2022-11-28T18:37:18.616Z,9.80
2022-11-28T18:39:47.295Z,9.70
2022-11-28T18:42:17.975Z,9.70
2022-11-28T18:44:46.190Z,9.80
2022-11-28T18:47:14.587Z,9.90
2022-11-28T18:49:43.047Z,9.90
2022-11-28T18:52:11.551Z,9.70
2022-11-28T18:54:39.820Z,9.60
2022-11-28T18:57:08.739Z,9.60
2022-11-28T18:59:38.525Z,9.60
2022-11-28T19:02:07.074Z,9.40
2022-11-28T19:04:35.325Z,9.30
2022-11-28T19:07:04.350Z,9.30
2022-11-28T19:09:32.958Z,9.40
2022-11-28T19:12:01.171Z,9.30
2022-11-28T19:14:29.501Z,9.20
2022-11-28T19:16:59.795Z,9.20
2022-11-28T19:19:28.039Z,9.10
2022-11-28T19:21:56.379Z,9.00
2022-11-28T19:24:24.626Z,9.00
2022-11-28T19:26:52.853Z,8.90
2022-11-28T19:29:21.211Z,8.90
2022-11-28T19:31:50.319Z,8.90
2022-11-28T19:34:20.362Z,8.80
2022-11-28T19:36:51.273Z,8.80
2022-11-28T19:39:22.212Z,8.80
2022-11-28T19:41:51.812Z,8.70
2022-11-28T19:44:21.017Z,8.70
2022-11-28T19:46:50.307Z,8.60
2022-11-28T19:49:22.052Z,8.50
2022-11-28T19:51:51.200Z,8.50
2022-11-28T19:54:20.887Z,8.50
2022-11-28T19:56:51.307Z,8.30
2022-11-28T19:59:19.543Z,8.40
2022-11-28T20:01:50.005Z,8.30
2022-11-28T20:04:20.444Z,8.40
2022-11-28T20:06:48.799Z,8.60
2022-11-28T20:09:16.927Z,8.70
2022-11-28T20:11:45.977Z,8.70
2022-11-28T20:14:16.403Z,8.60
2022-11-28T20:16:44.929Z,8.50
2022-11-28T20:19:16.041Z,8.60
2022-11-28T20:21:46.135Z,8.70
2022-11-28T20:24:14.408Z,8.70
2022-11-28T20:26:44.162Z,8.90
2022-11-28T20:29:15.883Z,8.90
2022-11-28T20:31:46.600Z,8.70
2022-11-28T20:34:15.771Z,8.70
2022-11-28T20:36:45.489Z,8.70
2022-11-28T20:39:14.135Z,8.70
2022-11-28T20:41:42.373Z,8.80
2022-11-28T20:44:11.633Z,8.70
2022-11-28T20:46:40.028Z,8.70
2022-11-28T20:49:08.615Z,8.70
2022-11-28T20:51:37.257Z,8.70
2022-11-28T20:54:08.271Z,8.80
2022-11-28T20:57:04.974Z,8.80
2022-11-28T20:59:27.878Z,8.80
2022-11-28T21:01:56.442Z,8.60
2022-11-28T21:04:24.614Z,8.60
2022-11-28T21:06:53.140Z,8.60
2022-11-28T21:09:22.888Z,8.50
2022-11-28T21:11:57.521Z,8.50
2022-11-28T21:14:27.506Z,8.40
2022-11-28T21:16:56.014Z,8.30
2022-11-28T21:19:24.319Z,8.30
2022-11-28T21:21:52.680Z,8.20
2022-11-28T21:24:22.636Z,8.20
2022-11-28T21:26:53.891Z,8.20
2022-11-28T21:29:23.873Z,8.20
2022-11-28T21:31:52.490Z,8.20
2022-11-28T21:34:20.731Z,8.20
2022-11-28T21:36:49.033Z,8.20
2022-11-28T21:39:20.107Z,8.20
2022-11-28T21:41:51.073Z,8.10
2022-11-28T21:44:19.635Z,8.10
2022-11-28T21:46:47.802Z,8.10
2022-11-28T21:49:17.257Z,8.10
2022-11-28T21:51:45.571Z,8.00
2022-11-28T21:54:14.045Z,8.00
2022-11-28T21:56:42.718Z,7.90
2022-11-28T21:59:12.253Z,7.90
2022-11-28T22:01:40.600Z,7.90
2022-11-28T22:04:10.728Z,8.00
2022-11-28T22:06:38.957Z,7.90
2022-11-28T22:09:09.863Z,7.90
2022-11-28T22:11:39.390Z,7.90
2022-11-28T22:14:07.920Z,7.90
2022-11-28T22:16:37.409Z,8.00
2022-11-28T22:19:05.895Z,7.90
2022-11-28T22:24:22.625Z,7.80
2022-11-28T22:26:50.860Z,7.90
2022-11-28T22:29:19.148Z,7.90
2022-11-28T22:31:48.956Z,7.80
2022-11-28T22:34:17.205Z,7.90
2022-11-28T22:36:45.383Z,7.70
2022-11-28T22:39:13.678Z,7.70
2022-11-28T22:41:41.823Z,7.70
2022-11-28T22:44:11.915Z,7.80
2022-11-28T22:46:40.613Z,7.80
2022-11-28T22:49:11.373Z,7.80
2022-11-28T22:51:40.552Z,7.80
2022-11-28T22:54:12.265Z,7.90
2022-11-28T22:56:41.190Z,7.80
2022-11-28T22:59:13.079Z,7.70
2022-11-28T23:01:43.920Z,7.70
2022-11-28T23:04:13.944Z,7.70
2022-11-28T23:06:42.142Z,7.80
2022-11-28T23:09:11.784Z,7.70
2022-11-28T23:11:41.090Z,7.70
2022-11-28T23:14:09.839Z,7.60
2022-11-28T23:16:40.722Z,7.60
2022-11-28T23:19:11.959Z,7.60
2022-11-28T23:21:44.526Z,7.60
2022-11-28T23:24:15.339Z,7.70
2022-11-28T23:26:43.512Z,7.70
2022-11-28T23:29:12.159Z,7.70
2022-11-28T23:31:42.174Z,7.70
2022-11-28T23:34:11.097Z,7.70
2022-11-28T23:36:43.039Z,7.60
2022-11-28T23:39:13.294Z,7.50
2022-11-28T23:41:41.805Z,7.40
2022-11-28T23:44:12.439Z,7.30
2022-11-28T23:46:41.608Z,7.40
2022-11-28T23:49:11.001Z,7.50
2022-11-28T23:51:40.371Z,7.50
2022-11-28T23:54:10.909Z,7.50
2022-11-28T23:56:40.227Z,7.40
2022-11-28T23:59:10.479Z,7.30
